Time;durP1;ratioP1;P1;durP2;ratioP2;P2;SDS_P1;SDS_P2;PMS_P1;PMS_P2;Temp;Humidity;BMP_temperature;BMP_pressure;BME280_temperature;BME280_humidity;BME280_pressure;Samples;Min_cycle;Max_cycle;Signal;HPM_P1;HPM_P2
2023/05/26 00:00:06;;;;;;;;;13.33;13.00;;;;;17.25;51.07;102150.34;5077690;27;45457;-49
2023/05/26 00:02:31;;;;;;;;;12.00;9.00;;;;;17.20;51.02;102150.81;5077237;27;45502;-52
2023/05/26 00:05:01;;;;;;;;;14.33;12.00;;;;;17.15;50.82;102145.91;5077250;28;45436;-46
2023/05/26 00:07:26;;;;;;;;;11.00;11.00;;;;;17.06;51.25;102140.59;5077746;27;45537;-51
2023/05/26 00:09:52;;;;;;;;;12.33;10.67;;;;;17.14;51.18;102156.78;5076596;27;46234;-54
2023/05/26 00:12:17;;;;;;;;;13.67;10.67;;;;;17.12;51.40;102150.75;5076950;27;45452;-53
2023/05/26 00:14:43;;;;;;;;;15.00;11.00;;;;;17.11;51.65;102154.44;5076842;27;45406;-48
2023/05/26 00:17:08;;;;;;;;;12.33;10.67;;;;;17.05;51.88;102138.91;5077112;27;45605;-54
2023/05/26 00:19:37;;;;;;;;;14.00;13.67;;;;;17.06;51.79;102151.34;5076806;27;46049;-52
2023/05/26 00:22:03;;;;;;;;;17.67;11.67;;;;;16.97;51.69;102131.59;5076809;28;45434;-52
2023/05/26 00:24:28;;;;;;;;;15.67;11.67;;;;;17.00;51.88;102147.44;5076980;27;45265;-40
2023/05/26 00:26:54;;;;;;;;;16.00;12.33;;;;;16.97;51.89;102139.66;5077226;27;45533;-54
2023/05/26 00:29:19;;;;;;;;;15.00;13.00;;;;;16.94;51.99;102148.91;5076358;27;47093;-49
2023/05/26 00:31:45;;;;;;;;;12.00;12.00;;;;;16.92;52.03;102150.03;5076420;28;45225;-49
2023/05/26 00:34:10;;;;;;;;;13.00;12.67;;;;;16.83;52.38;102138.38;5076688;27;45238;-49
2023/05/26 00:36:36;;;;;;;;;16.33;11.67;;;;;16.84;52.43;102147.28;5076975;27;45283;-52
2023/05/26 00:39:01;;;;;;;;;12.33;10.33;;;;;16.76;52.19;102139.16;5076409;27;45959;-51
2023/05/26 00:41:27;;;;;;;;;8.67;8.67;;;;;16.75;52.65;102140.16;5076630;27;45258;-48
2023/05/26 00:43:52;;;;;;;;;16.33;10.67;;;;;16.71;52.66;102134.19;5076140;27;45439;-54
2023/05/26 00:46:18;;;;;;;;;13.67;12.00;;;;;16.67;52.89;102133.66;5076424;27;45343;-52
2023/05/26 00:48:43;;;;;;;;;12.33;10.33;;;;;16.61;52.60;102131.59;5076148;28;46007;-50
2023/05/26 00:51:11;;;;;;;;;13.00;11.00;;;;;16.60;53.13;102131.72;5076243;27;45288;-50
2023/05/26 00:53:41;;;;;;;;;15.00;11.00;;;;;16.51;52.64;102122.72;5076045;27;45337;-54
2023/05/26 00:56:07;;;;;;;;;12.00;11.00;;;;;16.52;53.06;102137.00;5076481;27;45655;-47
2023/05/26 00:58:33;;;;;;;;;11.67;11.67;;;;;16.48;53.17;102133.81;5076235;27;46375;-54
2023/05/26 01:00:58;;;;;;;;;14.33;11.33;;;;;16.44;53.60;102124.34;5076158;27;45490;-42
2023/05/26 01:03:26;;;;;;;;;14.67;13.33;;;;;16.41;53.07;102128.19;5076556;27;45369;-40
2023/05/26 01:05:53;;;;;;;;;13.33;11.00;;;;;16.38;53.51;102135.69;5075930;27;45562;-38
2023/05/26 01:08:18;;;;;;;;;8.00;4.67;;;;;16.35;53.76;102122.56;5076059;27;46585;-43
2023/05/26 01:10:44;;;;;;;;;16.33;14.33;;;;;16.26;53.93;102127.00;5076129;27;45308;-47
2023/05/26 01:13:15;;;;;;;;;18.33;12.33;;;;;16.20;53.22;102122.22;5075551;27;45429;-51
2023/05/26 01:15:48;;;;;;;;;16.00;13.00;;;;;16.24;54.28;102144.25;5075890;27;45556;-51
2023/05/26 01:18:24;;;;;;;;;18.33;13.67;;;;;16.20;54.53;102131.13;5075547;27;45431;-40
2023/05/26 01:20:57;;;;;;;;;17.33;14.00;;;;;16.14;53.99;102131.75;5074494;27;45497;-56
2023/05/26 01:23:43;;;;;;;;;15.33;12.33;;;;;16.11;54.13;102137.41;5075896;27;45290;-55
2023/05/26 01:26:36;;;;;;;;;17.33;13.67;;;;;15.67;54.53;102061.19;5076127;27;45327;-48
2023/05/26 01:29:08;;;;;;;;;17.00;16.67;;;;;16.01;54.97;102131.22;5075207;27;45455;-43
2023/05/26 01:31:33;;;;;;;;;13.67;11.00;;;;;15.99;54.97;102135.06;5076133;27;45358;-55
2023/05/26 01:34:00;;;;;;;;;18.33;15.33;;;;;15.96;55.06;102137.03;5075622;27;45171;-41
2023/05/26 01:36:28;;;;;;;;;16.67;11.33;;;;;15.92;55.08;102130.28;5076223;27;45291;-53
2023/05/26 01:38:54;;;;;;;;;18.33;15.00;;;;;15.78;55.44;102116.50;5075747;27;47082;-52
2023/05/26 01:41:52;;;;;;;;;21.00;16.33;;;;;15.87;55.28;102135.25;5075409;27;45513;-49
2023/05/26 01:44:31;;;;;;;;;20.33;17.00;;;;;15.82;55.32;102150.09;5075558;28;45217;-50
2023/05/26 01:46:57;;;;;;;;;14.00;13.00;;;;;15.73;55.89;102141.09;5075795;27;45443;-50
2023/05/26 01:49:28;;;;;;;;;20.00;19.67;;;;;15.63;55.68;102135.75;5075676;27;46512;-46
2023/05/26 01:51:59;;;;;;;;;20.33;17.00;;;;;15.67;56.07;102158.63;5075456;27;45373;-44
2023/05/26 01:54:30;;;;;;;;;18.67;16.00;;;;;15.65;56.35;102160.59;5075654;27;45324;-49
2023/05/26 01:56:57;;;;;;;;;20.00;13.67;;;;;15.57;56.48;102143.50;5076022;27;45252;-40
2023/05/26 01:59:23;;;;;;;;;20.33;18.00;;;;;15.59;56.77;102158.47;5075225;27;45639;-41
2023/05/26 02:01:49;;;;;;;;;19.00;14.67;;;;;15.58;56.08;102148.72;5075087;27;45921;-41
2023/05/26 02:04:15;;;;;;;;;22.00;15.00;;;;;15.56;56.53;102150.72;5075477;27;45427;-44
2023/05/26 02:06:40;;;;;;;;;22.33;18.00;;;;;15.51;57.01;102150.31;5075530;27;45458;-41
2023/05/26 02:09:06;;;;;;;;;26.00;19.33;;;;;15.47;57.27;102144.38;5075298;27;45978;-46
2023/05/26 02:11:32;;;;;;;;;18.00;17.00;;;;;15.47;57.34;102151.59;5075182;27;45861;-40
2023/05/26 02:13:57;;;;;;;;;17.67;16.00;;;;;15.45;57.08;102154.38;5075288;27;45371;-55
2023/05/26 02:16:23;;;;;;;;;16.00;16.00;;;;;15.42;57.41;102154.69;5075556;27;45532;-43
2023/05/26 02:18:49;;;;;;;;;21.33;18.67;;;;;15.42;57.32;102156.50;5076070;28;48132;-55
2023/05/26 02:21:15;;;;;;;;;17.33;15.67;;;;;15.40;57.11;102155.81;5077293;28;45255;-41
2023/05/26 02:23:45;;;;;;;;;22.33;19.67;;;;;15.37;56.35;102156.94;5078754;27;45385;-42
2023/05/26 02:26:11;;;;;;;;;33.00;19.33;;;;;15.33;57.14;102152.84;5078928;27;45386;-42
2023/05/26 02:28:37;;;;;;;;;26.00;18.00;;;;;15.29;57.61;102156.81;5078217;27;46309;-56
2023/05/26 02:31:03;;;;;;;;;18.67;17.00;;;;;15.25;57.63;102158.09;5077025;28;45912;-46
2023/05/26 02:33:29;;;;;;;;;23.33;17.33;;;;;15.22;57.02;102161.91;5076966;28;45400;-42
2023/05/26 02:35:54;;;;;;;;;19.67;16.33;;;;;15.21;58.08;102162.03;5078839;27;45743;-55
2023/05/26 02:38:20;;;;;;;;;25.33;18.33;;;;;15.15;57.65;102152.75;5078409;27;45600;-55
2023/05/26 02:40:45;;;;;;;;;21.33;19.67;;;;;15.14;58.06;102156.41;5078352;27;45509;-54
2023/05/26 02:43:11;;;;;;;;;22.67;19.33;;;;;15.12;57.92;102147.66;5078283;27;45270;-55
2023/05/26 02:45:36;;;;;;;;;21.67;18.67;;;;;15.09;58.39;102145.28;5078189;27;45498;-53
2023/05/26 02:48:01;;;;;;;;;26.67;15.67;;;;;15.06;58.58;102144.72;5077923;27;51781;-54
2023/05/26 02:50:26;;;;;;;;;22.00;19.00;;;;;15.05;58.55;102143.88;5078248;27;45384;-56
2023/05/26 02:52:52;;;;;;;;;28.67;22.67;;;;;15.01;58.66;102147.81;5078351;27;45317;-54
2023/05/26 02:55:18;;;;;;;;;22.33;19.33;;;;;14.97;58.65;102146.41;5078021;27;45529;-54
2023/05/26 02:57:43;;;;;;;;;21.33;18.00;;;;;14.94;58.78;102141.31;5077698;27;47118;-44
2023/05/26 03:00:12;;;;;;;;;21.67;18.33;;;;;14.94;58.61;102139.50;5077661;27;45398;-51
2023/05/26 03:02:38;;;;;;;;;19.33;17.00;;;;;14.93;58.75;102137.81;5078184;27;45271;-42
2023/05/26 03:05:05;;;;;;;;;21.00;16.33;;;;;14.92;59.06;102143.31;5078337;28;45351;-43
2023/05/26 03:07:31;;;;;;;;;20.67;18.00;;;;;14.89;58.34;102141.75;5077720;27;46827;-45
2023/05/26 03:09:56;;;;;;;;;16.00;13.67;;;;;14.82;58.91;102134.41;5077764;27;45251;-52
2023/05/26 03:12:21;;;;;;;;;18.67;16.67;;;;;14.82;58.83;102140.63;5076653;28;45355;-55
2023/05/26 03:14:46;;;;;;;;;24.67;17.33;;;;;14.79;58.97;102150.75;5077843;27;45492;-53
2023/05/26 03:17:12;;;;;;;;;21.67;13.00;;;;;14.77;59.13;102147.38;5078106;27;45440;-46
2023/05/26 03:19:37;;;;;;;;;22.00;15.33;;;;;14.73;59.42;102139.63;5077509;27;45853;-48
2023/05/26 03:22:03;;;;;;;;;17.67;15.33;;;;;14.59;59.31;102134.69;5077819;27;45418;-53
2023/05/26 03:24:28;;;;;;;;;21.33;14.67;;;;;14.69;59.60;102143.56;5059558;28;45386;-39
2023/05/26 03:26:53;;;;;;;;;27.67;16.33;;;;;14.69;59.67;102145.41;5077661;27;45880;-44
2023/05/26 03:29:19;;;;;;;;;20.33;11.67;;;;;14.67;59.64;102142.88;5077214;27;45461;-42
2023/05/26 03:31:44;;;;;;;;;22.00;15.33;;;;;14.64;59.49;102143.16;5077551;27;45339;-55
2023/05/26 03:34:10;;;;;;;;;15.67;15.00;;;;;14.60;59.70;102135.53;5077966;27;45557;-51
2023/05/26 03:36:38;;;;;;;;;16.00;12.67;;;;;14.55;59.51;102133.28;5077341;27;46160;-44
2023/05/26 03:39:04;;;;;;;;;16.33;13.00;;;;;14.57;59.76;102147.34;5077476;28;45715;-43
2023/05/26 03:41:31;;;;;;;;;19.00;13.67;;;;;14.54;59.63;102141.41;5077527;27;45307;-49
2023/05/26 03:43:57;;;;;;;;;17.67;15.33;;;;;14.54;59.93;102146.78;5077609;27;45500;-53
2023/05/26 03:46:22;;;;;;;;;19.33;14.00;;;;;14.51;59.74;102141.72;5076890;27;46232;-56
2023/05/26 03:48:47;;;;;;;;;15.33;13.00;;;;;14.48;60.17;102142.81;5077285;27;45391;-54
2023/05/26 03:51:13;;;;;;;;;19.00;16.67;;;;;14.45;60.18;102132.34;5077309;27;45402;-55
2023/05/26 03:53:39;;;;;;;;;25.00;14.00;;;;;14.42;59.18;102130.81;5077422;27;45362;-50
2023/05/26 03:56:04;;;;;;;;;16.33;13.33;;;;;14.39;60.23;102132.91;5077040;27;46145;-40
2023/05/26 03:58:30;;;;;;;;;13.33;11.33;;;;;14.36;59.97;102133.19;5077080;27;45534;-51
2023/05/26 04:00:56;;;;;;;;;14.67;13.00;;;;;14.32;60.34;102126.41;5077447;27;45298;-48
2023/05/26 04:03:21;;;;;;;;;16.67;14.00;;;;;14.35;59.97;102135.03;5077323;27;45526;-40
2023/05/26 04:05:47;;;;;;;;;18.00;13.33;;;;;14.34;60.41;102127.13;5075290;28;45344;-49
2023/05/26 04:08:13;;;;;;;;;13.33;11.67;;;;;14.34;60.52;102132.50;5077107;27;45486;-45
2023/05/26 04:10:38;;;;;;;;;18.67;14.00;;;;;14.32;60.23;102134.44;5076960;27;45249;-48
2023/05/26 04:13:03;;;;;;;;;14.00;10.00;;;;;14.33;59.65;102145.03;5077037;27;45326;-48
2023/05/26 04:15:29;;;;;;;;;18.33;12.00;;;;;14.31;60.00;102136.28;5076883;27;45702;-43
2023/05/26 04:17:54;;;;;;;;;17.00;14.00;;;;;14.32;60.32;102140.66;5076797;27;45322;-48
2023/05/26 04:20:20;;;;;;;;;15.67;14.00;;;;;14.32;60.28;102137.97;5076953;27;45826;-55
2023/05/26 04:22:45;;;;;;;;;14.33;11.33;;;;;14.34;60.04;102141.38;5077023;27;45488;-38
2023/05/26 04:25:11;;;;;;;;;16.00;12.33;;;;;14.36;60.27;102143.91;5076538;28;49031;-53
2023/05/26 04:27:37;;;;;;;;;16.00;13.33;;;;;14.30;59.87;102136.44;5076486;27;45434;-47
2023/05/26 04:30:04;;;;;;;;;12.33;11.67;;;;;14.36;60.25;102143.91;5076769;27;45360;-39
2023/05/26 04:32:30;;;;;;;;;19.33;13.33;;;;;14.32;60.29;102137.13;5076454;27;45424;-44
2023/05/26 04:34:58;;;;;;;;;23.67;12.00;;;;;14.33;60.47;102144.19;5076651;27;46373;-39
2023/05/26 04:37:24;;;;;;;;;19.67;14.67;;;;;14.31;60.42;102141.63;5076487;27;45366;-39
2023/05/26 04:39:49;;;;;;;;;15.00;13.67;;;;;14.35;59.92;102148.41;5076222;27;45263;-47
2023/05/26 04:42:15;;;;;;;;;16.67;13.00;;;;;14.32;60.29;102139.81;5075980;27;45522;-50
2023/05/26 04:44:43;;;;;;;;;16.00;12.00;;;;;14.36;60.12;102142.06;5076053;27;46424;-54
2023/05/26 04:47:08;;;;;;;;;16.33;14.00;;;;;14.31;59.71;102143.47;5076210;27;45533;-52
2023/05/26 04:49:35;;;;;;;;;15.33;11.33;;;;;14.35;60.12;102153.75;5074836;28;45399;-54
2023/05/26 04:52:01;;;;;;;;;14.33;9.67;;;;;14.38;59.96;102163.34;5076473;27;45381;-48
2023/05/26 04:54:26;;;;;;;;;14.67;12.67;;;;;14.38;59.75;102155.31;5075976;27;45430;-41
2023/05/26 04:56:53;;;;;;;;;15.00;11.33;;;;;14.38;60.07;102166.03;5076274;27;45335;-47
2023/05/26 04:59:21;;;;;;;;;13.67;10.33;;;;;14.35;60.11;102163.63;5076108;27;45206;-47
2023/05/26 05:01:47;;;;;;;;;13.33;10.67;;;;;14.30;59.67;102164.03;5076065;27;45453;-39
2023/05/26 05:04:12;;;;;;;;;16.00;10.00;;;;;14.36;59.92;102162.63;5076022;27;46185;-41
2023/05/26 05:06:37;;;;;;;;;15.00;10.67;;;;;14.34;59.49;102161.94;5076104;27;45349;-53
2023/05/26 05:09:03;;;;;;;;;17.67;12.00;;;;;14.36;58.94;102165.31;5076347;27;45386;-40
2023/05/26 05:11:28;;;;;;;;;17.67;12.00;;;;;14.34;59.67;102172.66;5076255;27;45327;-47
2023/05/26 05:13:53;;;;;;;;;15.00;13.00;;;;;14.35;60.47;102177.00;5075955;27;45362;-54
2023/05/26 05:16:20;;;;;;;;;12.67;11.67;;;;;14.37;59.63;102172.38;5075711;27;45495;-57
2023/05/26 05:18:45;;;;;;;;;21.67;16.33;;;;;14.39;59.97;102179.28;5075649;27;45369;-50
2023/05/26 05:21:11;;;;;;;;;22.33;15.33;;;;;14.40;60.18;102188.16;5076330;27;45416;-56
2023/05/26 05:23:36;;;;;;;;;17.33;12.67;;;;;14.36;59.61;102182.22;5075819;27;47021;-58
2023/05/26 05:26:02;;;;;;;;;14.67;11.67;;;;;14.43;59.95;102193.25;5075945;27;45604;-42
2023/05/26 05:28:27;;;;;;;;;16.67;13.00;;;;;14.46;59.50;102193.81;5076299;27;45231;-51
2023/05/26 05:30:52;;;;;;;;;14.67;13.00;;;;;14.48;59.82;102204.38;5076271;27;45584;-51
2023/05/26 05:33:18;;;;;;;;;16.33;14.00;;;;;14.49;59.52;102198.06;5075701;27;46330;-50
2023/05/26 05:35:45;;;;;;;;;19.00;14.33;;;;;14.52;59.88;102202.31;5075753;27;45417;-50
2023/05/26 05:38:11;;;;;;;;;15.00;13.00;;;;;14.53;59.80;102202.16;5076171;27;45320;-54
2023/05/26 05:40:36;;;;;;;;;17.67;14.67;;;;;14.55;59.70;102204.72;5076225;27;45506;-51
2023/05/26 05:43:02;;;;;;;;;15.67;13.67;;;;;14.60;59.83;102199.81;5075712;27;45399;-47
2023/05/26 05:45:27;;;;;;;;;15.67;13.67;;;;;14.64;59.61;102202.06;5075881;27;45399;-46
2023/05/26 05:47:53;;;;;;;;;22.50;15.50;;;;;14.65;59.01;102202.91;5075740;27;45794;-48
2023/05/26 05:50:18;;;;;;;;;61.00;43.50;;;;;14.62;59.24;102198.69;5075772;27;45372;-56
2023/05/26 05:52:43;;;;;;;;;30.67;28.00;;;;;14.63;59.19;102200.38;5075430;27;46144;-51
2023/05/26 05:55:10;;;;;;;;;35.67;28.33;;;;;14.71;59.47;102211.25;5075900;27;45355;-54
2023/05/26 05:57:35;;;;;;;;;17.33;14.67;;;;;14.72;58.89;102204.06;5075795;28;45499;-50
2023/05/26 06:00:02;;;;;;;;;16.33;10.33;;;;;14.82;59.22;102217.47;5075614;27;45431;-54
2023/05/26 06:02:27;;;;;;;;;19.00;13.67;;;;;14.88;59.17;102216.94;5075357;27;46949;-44
2023/05/26 06:04:53;;;;;;;;;16.67;13.00;;;;;14.89;58.78;102207.88;5075680;27;45390;-54
2023/05/26 06:07:18;;;;;;;;;18.33;14.67;;;;;15.02;59.13;102216.50;5075530;27;45276;-53
2023/05/26 06:09:43;;;;;;;;;19.33;13.33;;;;;15.09;58.56;102223.00;5075813;27;45217;-51
2023/05/26 06:12:09;;;;;;;;;23.67;13.67;;;;;15.18;58.45;102213.28;5075091;27;47375;-54
2023/05/26 06:14:34;;;;;;;;;17.00;15.00;;;;;15.19;58.31;102210.44;5075550;27;45738;-51
2023/05/26 06:16:59;;;;;;;;;20.33;14.67;;;;;15.33;57.51;102225.25;5075677;27;45376;-54
2023/05/26 06:19:25;;;;;;;;;23.00;17.67;;;;;15.37;57.62;102218.63;5075645;27;45304;-50
2023/05/26 06:21:50;;;;;;;;;17.00;11.33;;;;;15.48;57.90;102213.13;5075367;27;47160;-55
2023/05/26 06:24:16;;;;;;;;;52.75;38.25;;;;;15.57;57.58;102224.81;5075287;27;45304;-49
2023/05/26 06:26:41;;;;;;;;;25.67;21.00;;;;;15.68;57.23;102223.84;5075715;27;45237;-52
2023/05/26 06:29:07;;;;;;;;;21.00;15.33;;;;;15.78;57.15;102223.81;5075300;27;45345;-52
2023/05/26 06:31:32;;;;;;;;;24.00;13.00;;;;;15.88;56.89;102225.47;5074934;27;46226;-51
2023/05/26 06:33:57;;;;;;;;;19.67;15.67;;;;;15.67;56.54;102160.44;5075428;27;45443;-54
2023/05/26 06:36:23;;;;;;;;;22.33;14.33;;;;;16.12;56.22;102222.31;5075121;27;45495;-51
2023/05/26 06:38:48;;;;;;;;;16.67;14.67;;;;;16.22;55.89;102208.84;5074166;28;45414;-45
2023/05/26 06:41:13;;;;;;;;;15.33;14.33;;;;;16.43;55.78;102216.66;5074982;27;46118;-45
2023/05/26 06:43:39;;;;;;;;;25.33;17.00;;;;;16.64;55.25;102221.78;5074887;27;45339;-54
2023/05/26 06:46:05;;;;;;;;;24.33;15.67;;;;;17.17;54.46;102202.19;5072790;27;45468;-53
2023/05/26 06:48:30;;;;;;;;;21.00;17.00;;;;;18.47;52.55;102204.91;5124625;27;46108;-47
2023/05/26 06:50:55;;;;;;;;;22.33;14.33;;;;;19.98;49.44;102208.25;5095223;27;45522;-54
2023/05/26 06:53:21;;;;;;;;;18.33;16.00;;;;;21.40;45.54;102197.16;5095421;27;45933;-54
2023/05/26 06:55:46;;;;;;;;;21.00;16.33;;;;;22.69;45.01;102193.16;5094802;27;46002;-53
2023/05/26 06:58:11;;;;;;;;;14.00;14.00;;;;;23.68;42.01;102200.59;5095310;27;45374;-55
2023/05/26 07:00:38;;;;;;;;;17.33;14.00;;;;;24.43;39.18;102182.63;5094683;27;45481;-54
2023/05/26 07:03:03;;;;;;;;;17.00;15.33;;;;;25.19;37.76;102182.41;5095022;27;45363;-51
2023/05/26 07:05:28;;;;;;;;;16.75;15.00;;;;;26.03;36.79;102179.78;5098433;27;45261;-42
2023/05/26 07:07:54;;;;;;;;;16.25;13.25;;;;;26.79;34.65;102189.13;5098586;27;45293;-54
2023/05/26 07:10:19;;;;;;;;;15.25;12.00;;;;;27.49;34.57;102194.50;5097972;27;46196;-54
2023/05/26 07:12:45;;;;;;;;;15.50;11.75;;;;;28.17;34.32;102193.63;5097718;27;45340;-50
2023/05/26 07:15:10;;;;;;;;;18.50;14.50;;;;;28.71;32.01;102180.94;5098242;27;45268;-56
2023/05/26 07:17:36;;;;;;;;;10.00;9.50;;;;;29.21;32.40;102184.19;5096833;27;45631;-54
2023/05/26 07:20:02;;;;;;;;;16.50;14.00;;;;;29.71;31.16;102175.53;5098096;27;45240;-46
2023/05/26 07:22:27;;;;;;;;;13.40;13.20;;;;;30.25;31.21;102181.63;5098241;27;45351;-52
2023/05/26 07:24:53;;;;;;;;;16.75;11.00;;;;;30.72;29.61;102178.72;5098170;27;45405;-52
2023/05/26 07:27:18;;;;;;;;;16.00;14.00;;;;;31.09;28.25;102177.41;5097214;27;45547;-53
2023/05/26 07:29:43;;;;;;;;;21.75;15.25;;;;;31.54;28.76;102180.91;5097543;27;46213;-53
2023/05/26 07:32:09;;;;;;;;;14.50;14.25;;;;;31.96;28.16;102185.09;5097473;27;45379;-52
2023/05/26 07:34:34;;;;;;;;;16.75;14.25;;;;;32.26;27.81;102188.22;5097842;27;45436;-55
2023/05/26 07:37:00;;;;;;;;;12.75;11.25;;;;;32.51;26.18;102184.97;5098170;27;45338;-54
2023/05/26 07:39:25;;;;;;;;;17.50;17.50;;;;;32.79;26.48;102186.63;5084383;27;45399;-50
2023/05/26 07:41:50;;;;;;;;;16.25;14.50;;;;;33.09;24.60;102178.94;5080978;27;45833;-54
2023/05/26 07:44:16;;;;;;;;;18.25;13.75;;;;;33.45;25.66;102183.63;5089566;27;45936;-50
2023/05/26 07:46:41;;;;;;;;;16.75;13.50;;;;;33.77;27.77;102179.97;5077812;27;45380;-53
2023/05/26 07:49:06;;;;;;;;;18.00;13.75;;;;;34.18;24.54;102188.47;5073769;27;46137;-50
2023/05/26 07:51:32;;;;;;;;;17.75;11.00;;;;;34.64;24.50;102183.06;5080665;27;45389;-52
2023/05/26 07:53:57;;;;;;;;;11.00;10.00;;;;;34.92;23.58;102182.53;5076861;27;45447;-54
2023/05/26 07:56:23;;;;;;;;;16.00;12.50;;;;;35.21;23.47;102177.31;5075993;27;45434;-53
2023/05/26 07:58:48;;;;;;;;;15.50;13.00;;;;;35.44;22.76;102177.81;5093450;27;47131;-51
2023/05/26 08:01:13;;;;;;;;;15.25;14.25;;;;;35.81;22.33;102174.69;5093349;27;45945;-45
2023/05/26 08:03:38;;;;;;;;;13.25;11.25;;;;;36.20;21.65;102171.25;5093778;27;45420;-49
2023/05/26 08:06:04;;;;;;;;;15.25;10.75;;;;;36.81;22.08;102181.94;5083144;27;45804;-54
2023/05/26 08:08:29;;;;;;;;;12.75;12.25;;;;;37.29;21.49;102172.94;5076521;27;45878;-51
2023/05/26 08:10:55;;;;;;;;;14.00;13.50;;;;;37.68;20.76;102173.69;5093805;27;45358;-50
2023/05/26 08:13:20;;;;;;;;;11.25;11.25;;;;;38.07;20.19;102175.44;5092930;27;45465;-49
2023/05/26 08:15:45;;;;;;;;;11.75;11.25;;;;;38.56;19.45;102174.22;5092608;27;45454;-52
2023/05/26 08:18:11;;;;;;;;;14.75;12.00;;;;;38.90;18.90;102176.75;5082458;27;46196;-40
2023/05/26 08:20:36;;;;;;;;;14.50;9.75;;;;;39.22;19.99;102177.03;5079135;27;45317;-41
2023/05/26 08:23:03;;;;;;;;;15.50;14.25;;;;;39.45;19.05;102175.22;5093679;27;45387;-41
2023/05/26 08:25:28;;;;;;;;;23.60;22.40;;;;;39.88;18.84;102179.38;5076924;27;45620;-42
2023/05/26 08:27:54;;;;;;;;;22.75;18.75;;;;;40.33;18.72;102175.91;5080841;27;46617;-39
2023/05/26 08:30:19;;;;;;;;;13.50;10.25;;;;;40.90;17.59;102171.44;5093071;27;45512;-50
2023/05/26 08:32:45;;;;;;;;;14.00;11.75;;;;;41.33;18.45;102182.06;5093764;27;46064;-40
2023/05/26 08:35:10;;;;;;;;;13.25;11.00;;;;;41.25;17.27;102182.00;5076340;27;45843;-53
2023/05/26 08:37:35;;;;;;;;;17.00;14.50;;;;;41.43;16.95;102169.00;5079989;27;45437;-55
2023/05/26 08:40:04;;;;;;;;;15.75;12.50;;;;;41.65;19.87;102168.91;5074756;27;45435;-41
2023/05/26 08:42:33;;;;;;;;;17.60;13.00;;;;;41.56;17.89;102140.13;5075925;27;46231;-40
2023/05/26 08:45:00;;;;;;;;;10.40;8.80;;;;;41.80;18.08;102167.63;5092951;27;45510;-45
2023/05/26 08:47:26;;;;;;;;;16.60;12.60;;;;;41.98;18.10;102171.31;5093180;27;46439;-52
2023/05/26 08:49:54;;;;;;;;;12.40;10.40;;;;;42.41;16.69;102165.78;5092715;27;45793;-55
2023/05/26 08:52:22;;;;;;;;;15.00;13.60;;;;;42.54;16.48;102175.16;5093244;27;45426;-50
2023/05/26 08:54:48;;;;;;;;;13.60;11.40;;;;;42.83;16.41;102166.91;5079424;27;45953;-48
2023/05/26 08:57:14;;;;;;;;;12.00;10.60;;;;;43.10;16.62;102178.88;5075314;27;45819;-44
2023/05/26 08:59:40;;;;;;;;;10.60;10.00;;;;;43.37;15.79;102169.25;5089326;27;46602;-54
2023/05/26 09:02:06;;;;;;;;;11.80;10.80;;;;;43.52;15.88;102167.88;5088139;27;45509;-43
2023/05/26 09:04:31;;;;;;;;;16.50;11.75;;;;;43.56;15.04;102161.25;5125591;27;45274;-43
2023/05/26 09:06:58;;;;;;;;;11.75;11.00;;;;;43.80;15.21;102137.38;5093016;27;47266;-51
2023/05/26 09:09:23;;;;;;;;;14.00;12.80;;;;;44.10;15.57;102171.84;5092468;27;45355;-43
2023/05/26 09:11:49;;;;;;;;;13.75;12.00;;;;;44.00;17.22;102167.47;5092489;27;45455;-47
2023/05/26 09:14:16;;;;;;;;;13.25;11.75;;;;;43.84;15.47;102166.38;5092204;27;45470;-49
2023/05/26 09:16:42;;;;;;;;;16.60;13.60;;;;;43.76;16.11;102167.25;5079036;27;46284;-45
2023/05/26 09:19:14;;;;;;;;;13.00;9.75;;;;;43.67;16.75;102166.50;5086686;27;45423;-55
2023/05/26 09:21:44;;;;;;;;;14.60;14.20;;;;;43.55;15.89;102168.03;5091853;27;45453;-53
2023/05/26 09:24:10;;;;;;;;;11.20;10.20;;;;;43.68;15.65;102166.13;5092363;27;45473;-43
2023/05/26 09:26:38;;;;;;;;;13.25;13.25;;;;;43.58;15.27;102170.16;5089983;27;46302;-50
2023/05/26 09:29:05;;;;;;;;;14.80;12.20;;;;;44.08;15.82;102174.16;5072182;27;45971;-51
2023/05/26 09:31:48;;;;;;;;;12.20;11.60;;;;;44.26;15.63;102170.09;5092081;27;45485;-56
2023/05/26 09:34:15;;;;;;;;;10.40;10.00;;;;;44.52;15.50;102169.03;5092200;27;45590;-48
2023/05/26 09:36:41;;;;;;;;;12.80;9.40;;;;;44.71;14.55;102171.34;5076816;27;47103;-56
2023/05/26 09:39:12;;;;;;;;;12.20;11.60;;;;;44.76;15.33;102165.53;5075506;27;45278;-52
2023/05/26 09:41:43;;;;;;;;;10.00;10.00;;;;;44.92;14.88;102174.91;5091354;27;45323;-40
2023/05/26 09:44:08;;;;;;;;;10.40;10.40;;;;;45.08;14.74;102169.47;5075778;27;45528;-53
2023/05/26 09:46:35;;;;;;;;;20.75;12.00;;;;;45.11;13.86;102174.41;5074845;27;46228;-54
2023/05/26 09:49:07;;;;;;;;;12.40;12.00;;;;;45.23;14.30;102173.59;5075276;27;45459;-53
2023/05/26 09:51:33;;;;;;;;;14.80;11.40;;;;;45.45;13.74;102173.16;5075287;27;45350;-51
2023/05/26 09:53:59;;;;;;;;;9.60;8.80;;;;;45.58;14.14;102178.78;5075885;27;45222;-54
2023/05/26 09:56:30;;;;;;;;;12.00;11.50;;;;;45.59;14.89;102169.19;5075403;27;46033;-55
2023/05/26 09:58:57;;;;;;;;;15.80;12.80;;;;;44.84;14.50;102133.72;5075591;27;45301;-53
2023/05/26 10:01:24;;;;;;;;;14.40;11.20;;;;;44.99;13.81;102166.75;5075772;28;45355;-56
2023/05/26 10:03:51;;;;;;;;;11.00;7.60;;;;;45.09;14.23;102164.66;5075460;27;45386;-46
2023/05/26 10:06:18;;;;;;;;;14.40;11.80;;;;;45.11;14.63;102168.78;5075161;27;46134;-54
2023/05/26 10:08:47;;;;;;;;;13.00;11.40;;;;;45.13;14.27;102169.25;5075017;27;45362;-56
2023/05/26 10:11:13;;;;;;;;;13.00;9.60;;;;;45.17;15.42;102167.38;5075168;27;45406;-55
2023/05/26 10:13:39;;;;;;;;;11.60;11.40;;;;;44.87;14.73;102163.91;5075328;27;45443;-47
2023/05/26 10:16:05;;;;;;;;;12.25;9.75;;;;;44.55;14.96;102159.94;5074869;28;45716;-47
2023/05/26 10:18:31;;;;;;;;;10.40;9.60;;;;;44.34;14.88;102168.38;5074834;27;45566;-53
2023/05/26 10:20:59;;;;;;;;;14.40;11.00;;;;;44.54;14.26;102161.06;5075166;27;45375;-52
2023/05/26 10:23:36;;;;;;;;;17.60;11.80;;;;;44.36;14.85;102152.00;5075040;27;45407;-52
2023/05/26 10:26:10;;;;;;;;;13.00;11.00;;;;;44.67;14.21;102157.19;5074888;27;45386;-56
2023/05/26 10:28:50;;;;;;;;;10.80;9.40;;;;;44.43;15.15;102159.88;5074669;27;45346;-52
2023/05/26 10:31:30;;;;;;;;;15.60;12.20;;;;;44.42;15.17;102155.44;5074894;27;45441;-48
2023/05/26 10:33:56;;;;;;;;;15.80;10.40;;;;;44.51;14.53;102156.16;5075049;27;45331;-55
2023/05/26 10:36:21;;;;;;;;;12.75;9.75;;;;;44.39;14.83;102150.50;5074285;27;45379;-45
2023/05/26 10:38:55;;;;;;;;;12.75;10.50;;;;;43.97;15.04;102147.69;5091839;27;45428;-50
2023/05/26 10:41:30;;;;;;;;;10.80;10.00;;;;;43.58;15.49;102153.34;5098720;27;45407;-50
2023/05/26 10:43:55;;;;;;;;;9.00;8.80;;;;;43.13;15.26;102150.22;5098919;27;45301;-53
2023/05/26 10:46:21;;;;;;;;;14.50;13.00;;;;;42.46;15.59;102143.22;5098362;27;46498;-49
2023/05/26 10:48:57;;;;;;;;;11.75;9.50;;;;;41.92;16.13;102141.88;5097285;27;45721;-53
2023/05/26 10:51:32;;;;;;;;;9.40;8.80;;;;;41.16;16.42;102133.69;5098771;27;45409;-49
2023/05/26 10:53:58;;;;;;;;;12.00;12.00;;;;;40.41;17.12;102150.03;5098915;27;45237;-39
2023/05/26 10:56:34;;;;;;;;;12.00;10.40;;;;;38.82;18.35;102138.50;5098508;27;47535;-41
2023/05/26 10:58:59;;;;;;;;;11.00;10.40;;;;;37.02;20.06;102137.44;5099069;27;45446;-53
2023/05/26 11:01:30;;;;;;;;;14.00;11.50;;;;;35.62;20.17;102137.69;5099758;27;45484;-55
2023/05/26 11:03:56;;;;;;;;;16.60;14.80;;;;;34.24;22.29;102137.66;5098947;27;45228;-52
2023/05/26 11:06:35;;;;;;;;;15.00;13.00;;;;;32.96;22.72;102138.84;5098233;27;46237;-56